Time;durP1;ratioP1;P1;durP2;ratioP2;P2;SDS_P1;SDS_P2;PMS_P1;PMS_P2;Temp;Humidity;BMP_temperature;BMP_pressure;BME280_temperature;BME280_humidity;BME280_pressure;Samples;Min_cycle;Max_cycle;Signal;HPM_P1;HPM_P2
2021/12/07 00:01:04;;;;;;;20.52;5.97;;;;;;;23.71;45.38;98962.59;7303470;19;154199;-48
2021/12/07 00:03:30;;;;;;;22.77;6.07;;;;;;;23.78;44.87;98963.56;7316858;19;129682;-47
2021/12/07 00:05:55;;;;;;;23.42;6.38;;;;;;;23.90;45.32;98961.38;7303231;19;129832;-51
2021/12/07 00:08:21;;;;;;;19.60;5.73;;;;;;;24.02;44.83;98966.13;7316662;19;128908;-49
2021/12/07 00:10:49;;;;;;;22.55;6.10;;;;;;;24.08;44.63;98970.66;7304291;19;130098;-48
2021/12/07 00:13:14;;;;;;;23.25;5.63;;;;;;;24.20;44.24;98964.06;7315411;19;129318;-52
2021/12/07 00:15:39;;;;;;;15.63;5.55;;;;;;;24.21;44.56;98957.00;7312494;19;158970;-50
2021/12/07 00:18:05;;;;;;;18.52;5.38;;;;;;;24.33;44.01;98959.06;7316162;19;129106;-55
2021/12/07 00:20:31;;;;;;;30.97;6.73;;;;;;;24.35;43.74;98962.34;7304764;19;129606;-52
2021/12/07 00:23:00;;;;;;;24.08;5.88;;;;;;;24.26;44.04;98947.59;7315550;19;129190;-52
2021/12/07 00:25:25;;;;;;;23.25;6.00;;;;;;;24.18;43.86;98945.03;7301815;19;130597;-50
2021/12/07 00:27:51;;;;;;;21.58;6.18;;;;;;;24.19;44.70;98965.06;7315578;19;153575;-53
2021/12/07 00:30:17;;;;;;;20.75;5.75;;;;;;;24.12;44.31;98969.34;7310200;19;129608;-46
2021/12/07 00:32:50;;;;;;;9.83;4.73;;;;;;;24.02;44.88;98962.66;7316818;19;129368;-49
2021/12/07 00:35:33;;;;;;;20.23;5.30;;;;;;;23.95;45.08;98957.25;7301674;19;130938;-52
2021/12/07 00:38:00;;;;;;;16.50;5.35;;;;;;;23.81;45.87;98951.88;7315894;19;128973;-49
2021/12/07 00:40:25;;;;;;;;;;;;;;;23.74;45.93;98946.50;7304408;19;131083;-52
2021/12/07 00:42:51;;;;;;;14.63;4.57;;;;;;;23.71;46.12;98946.84;7315780;19;130519;-49
2021/12/07 00:45:21;;;;;;;23.17;5.67;;;;;;;23.63;46.13;98941.63;7313486;19;130153;-49
2021/12/07 00:47:48;;;;;;;18.40;5.55;;;;;;;23.57;46.31;98933.59;7313138;19;129162;-50
2021/12/07 00:50:14;;;;;;;40.85;7.60;;;;;;;23.50;46.92;98933.44;7299005;19;131659;-48
2021/12/07 00:52:39;;;;;;;15.03;5.10;;;;;;;23.48;46.84;98922.31;7312192;19;131364;-48
2021/12/07 00:55:09;;;;;;;23.52;6.32;;;;;;;23.43;47.00;98927.22;7293731;19;158921;-49
2021/12/07 00:57:35;;;;;;;26.60;6.28;;;;;;;23.40;47.25;98922.31;7312938;19;130331;-51
2021/12/07 01:00:03;;;;;;;22.70;6.07;;;;;;;23.37;47.26;98927.88;7305050;19;129618;-51
2021/12/07 01:02:28;;;;;;;24.85;6.10;;;;;;;23.30;47.45;98915.63;7311853;19;131569;-52
2021/12/07 01:04:58;;;;;;;18.88;5.45;;;;;;;23.36;46.79;98926.25;7307402;19;158278;-51
2021/12/07 01:07:50;;;;;;;29.63;6.57;;;;;;;23.36;46.94;98921.00;7308342;19;129226;-52
2021/12/07 01:26:34;;;;;;;29.58;5.85;;;;;;;23.91;45.82;98879.00;7306637;19;129577;-48
2021/12/07 01:29:00;;;;;;;19.50;5.20;;;;;;;23.96;45.59;98874.88;7311135;19;129114;-47
2021/12/07 01:31:35;;;;;;;19.23;4.85;;;;;;;24.06;44.96;98878.13;7299570;19;130737;-49
2021/12/07 01:36:44;;;;;;;18.00;5.07;;;;;;;24.24;44.99;98875.22;7314475;19;159212;-50
2021/12/07 01:47:27;;;;;;;20.45;5.25;;;;;;;24.17;44.99;98851.47;7307314;19;129405;-50
2021/12/07 01:50:15;;;;;;;13.38;4.03;;;;;;;24.10;45.30;98857.56;7314888;19;129080;-49
2021/12/07 02:00:51;;;;;;;37.28;6.30;;;;;;;23.68;46.35;98865.81;7312472;19;129504;-46
2021/12/07 02:03:18;;;;;;;22.75;5.35;;;;;;;23.62;46.74;98863.84;7303703;19;129522;-53
2021/12/07 02:05:44;;;;;;;17.60;4.83;;;;;;;23.56;47.27;98848.81;7311149;19;129472;-51
2021/12/07 02:08:09;;;;;;;22.93;5.13;;;;;;;23.43;46.65;98840.66;7313498;19;130713;-48
2021/12/07 02:10:35;;;;;;;21.20;5.03;;;;;;;23.42;47.15;98833.75;7314650;19;128992;-51
2021/12/07 02:13:17;;;;;;;15.27;4.27;;;;;;;23.36;47.34;98834.44;7307678;19;131445;-52
2021/12/07 02:15:42;;;;;;;18.30;4.85;;;;;;;23.40;47.14;98825.25;7311142;19;130266;-51
2021/12/07 02:18:07;;;;;;;11.93;4.00;;;;;;;23.39;47.78;98820.97;7307756;19;130802;-48
2021/12/07 02:20:32;;;;;;;25.63;5.68;;;;;;;23.41;46.98;98824.25;7310563;19;153127;-47
2021/12/07 02:22:58;;;;;;;14.77;4.63;;;;;;;23.44;47.51;98823.91;7302556;19;149686;-55
2021/12/07 02:25:24;;;;;;;19.27;4.90;;;;;;;23.51;47.13;98816.19;7311426;19;129078;-49
2021/12/07 02:27:50;;;;;;;14.48;4.20;;;;;;;23.56;47.12;98822.56;7313521;19;129259;-46
2021/12/07 02:30:18;;;;;;;21.40;5.10;;;;;;;23.61;46.80;98815.00;7308277;19;132703;-52
2021/12/07 02:32:44;;;;;;;19.00;4.65;;;;;;;23.73;46.49;98812.81;7312997;19;129042;-47
2021/12/07 02:35:12;;;;;;;17.83;5.07;;;;;;;23.77;46.53;98820.16;7309981;19;130167;-53
2021/12/07 02:37:37;;;;;;;21.08;4.88;;;;;;;23.82;46.73;98827.50;7311818;19;130324;-48
2021/12/07 02:40:06;;;;;;;16.63;4.45;;;;;;;23.93;46.59;98825.31;7302813;19;131765;-50
2021/12/07 02:42:32;;;;;;;24.27;5.13;;;;;;;23.99;46.08;98829.91;7312784;19;129035;-50
2021/12/07 02:44:57;;;;;;;14.98;4.40;;;;;;;24.01;46.27;98830.56;7299990;19;130140;-52
2021/12/07 02:47:23;;;;;;;16.50;4.68;;;;;;;24.11;45.80;98835.59;7312579;19;130006;-51
2021/12/07 02:49:48;;;;;;;19.30;4.57;;;;;;;24.18;45.50;98826.03;7299786;19;130433;-51
2021/12/07 02:52:13;;;;;;;14.70;3.92;;;;;;;24.26;45.21;98832.00;7312798;19;128985;-50
2021/12/07 02:54:44;;;;;;;173.77;25.70;;;;;;;24.22;45.42;98833.38;7296449;19;130240;-48
2021/12/07 02:57:15;;;;;;;22.42;5.13;;;;;;;24.18;45.79;98839.16;7310874;19;130655;-53
2021/12/07 02:59:44;;;;;;;20.48;4.63;;;;;;;24.07;45.62;98827.22;7312507;19;128887;-48
2021/12/07 03:02:11;;;;;;;12.95;4.15;;;;;;;24.05;45.79;98841.50;7300746;19;129714;-48
2021/12/07 03:04:44;;;;;;;27.15;5.38;;;;;;;23.94;45.91;98831.38;7311302;19;130166;-47
2021/12/07 03:28:19;;;;;;;20.77;4.50;;;;;;;23.36;47.49;98831.81;7311600;19;129864;-46
2021/12/07 03:30:44;;;;;;;153.48;21.95;;;;;;;23.40;47.54;98822.63;7295704;19;153411;-48
2021/12/07 03:33:10;;;;;;;18.40;4.67;;;;;;;23.41;47.04;98824.25;7310131;19;132383;-47
2021/12/07 03:35:36;;;;;;;135.35;14.82;;;;;;;23.44;47.78;98826.53;7306204;19;128960;-48
2021/12/07 03:38:03;;;;;;;13.17;3.83;;;;;;;23.53;47.38;98820.28;7299479;19;131346;-49
2021/12/07 03:40:31;;;;;;;17.80;4.40;;;;;;;23.56;47.21;98824.34;7312506;19;128869;-54
2021/12/07 03:42:57;;;;;;;14.05;3.85;;;;;;;23.65;46.69;98813.66;7297793;19;129469;-52
2021/12/07 03:45:24;;;;;;;16.33;4.20;;;;;;;23.73;47.08;98821.50;7309694;19;130276;-53
2021/12/07 03:47:49;;;;;;;20.20;4.60;;;;;;;23.75;46.55;98811.63;7296874;19;131003;-49
2021/12/07 03:50:14;;;;;;;10.68;3.60;;;;;;;23.83;46.45;98803.69;7312283;19;129707;-53
2021/12/07 03:52:40;;;;;;;18.20;4.35;;;;;;;23.94;46.43;98795.44;7298498;19;133054;-53
2021/12/07 03:55:06;;;;;;;18.00;4.43;;;;;;;24.29;45.35;98815.94;7306806;19;129194;-52
2021/12/07 03:57:31;;;;;;;20.33;4.50;;;;;;;24.66;44.57;98819.56;7311087;19;131750;-51
2021/12/07 03:59:57;;;;;;;13.05;3.58;;;;;;;25.06;44.12;98813.91;7297239;19;145727;-52
2021/12/07 04:02:23;;;;;;;10.77;3.85;;;;;;;25.43;43.12;98813.88;7314539;19;129041;-53
2021/12/07 04:04:57;;;;;;;14.18;3.65;;;;;;;25.89;42.59;98807.34;7304583;19;130582;-52
2021/12/07 04:07:23;;;;;;;18.23;4.03;;;;;;;26.35;41.30;98803.34;7317845;19;130772;-52
2021/12/07 04:09:48;;;;;;;10.68;3.05;;;;;;;26.76;40.61;98800.88;7304337;19;155413;-52
2021/12/07 04:12:13;;;;;;;15.13;3.83;;;;;;;27.07;39.47;98797.84;7317562;19;128772;-53
2021/12/07 04:14:39;;;;;;;61.27;9.03;;;;;;;27.32;39.32;98793.75;7301996;19;158568;-53
2021/12/07 04:17:04;;;;;;;21.10;4.65;;;;;;;27.54;38.51;98797.91;7314709;19;158328;-50
2021/12/07 04:19:29;;;;;;;12.18;3.78;;;;;;;27.69;38.26;98798.56;7317175;19;154993;-53
2021/12/07 04:21:54;;;;;;;14.00;3.57;;;;;;;27.71;38.27;98791.25;7307512;19;155273;-51
2021/12/07 04:24:20;;;;;;;17.17;4.43;;;;;;;27.70;37.89;98787.78;7313694;19;158369;-51
2021/12/07 04:26:45;;;;;;;32.90;5.43;;;;;;;27.55;38.13;98791.63;7317766;19;138088;-51
2021/12/07 04:29:10;;;;;;;199.33;29.50;;;;;;;27.29;39.09;98787.03;7302595;19;154817;-50
2021/12/07 04:31:36;;;;;;;25.80;5.20;;;;;;;27.16;39.08;98786.09;7316095;19;129086;-49
2021/12/07 04:34:01;;;;;;;38.15;5.72;;;;;;;26.86;39.73;98785.53;7315450;19;135898;-48
2021/12/07 04:36:26;;;;;;;21.23;4.53;;;;;;;26.60;40.92;98796.69;7302982;19;158430;-50
2021/12/07 04:38:51;;;;;;;12.95;3.60;;;;;;;26.35;41.50;98790.19;7315438;19;155245;-53
2021/12/07 04:41:17;;;;;;;26.08;4.75;;;;;;;26.08;42.17;98795.41;7307995;19;153865;-47
2021/12/07 04:43:42;;;;;;;58.75;8.63;;;;;;;25.86;42.46;98797.16;7310190;19;144432;-48
2021/12/07 04:46:17;;;;;;;17.97;4.17;;;;;;;25.63;43.09;98801.78;7296801;19;133122;-49
2021/12/07 04:59:27;;;;;;;25.02;4.40;;;;;;;24.69;44.71;98790.31;7312441;19;129177;-47
2021/12/07 05:01:52;;;;;;;23.07;4.40;;;;;;;24.53;45.42;98793.06;7310368;19;145084;-48
2021/12/07 05:04:23;;;;;;;21.75;4.20;;;;;;;24.41;46.13;98792.69;7314104;19;138440;-48
2021/12/07 05:06:52;;;;;;;8.73;2.72;;;;;;;24.30;45.66;98780.78;7300976;19;129561;-48
2021/12/07 05:12:20;;;;;;;25.83;4.57;;;;;;;24.10;46.28;98779.59;7301979;19;129235;-48
2021/12/07 05:14:46;;;;;;;20.45;4.03;;;;;;;23.98;47.08;98794.13;7312179;19;130409;-48
2021/12/07 05:17:28;;;;;;;29.48;4.80;;;;;;;23.92;47.61;98786.94;7301019;19;130420;-47
2021/12/07 05:26:05;;;;;;;13.38;3.28;;;;;;;23.79;47.41;98786.69;7311587;19;128944;-46
2021/12/07 06:15:27;;;;;;;30.48;5.18;;;;;;;25.02;44.78;98807.41;7304973;19;131298;-48
2021/12/07 06:17:53;;;;;;;29.83;5.07;;;;;;;25.11;44.33;98809.75;7304633;19;130730;-46
2021/12/07 06:20:20;;;;;;;43.77;6.90;;;;;;;25.24;44.25;98817.00;7306866;19;129387;-48
2021/12/07 06:22:46;;;;;;;33.30;5.03;;;;;;;25.33;43.87;98826.44;7304207;19;129167;-46
2021/12/07 06:25:12;;;;;;;22.27;4.35;;;;;;;25.37;44.01;98810.13;7301011;19;129664;-48
2021/12/07 06:27:38;;;;;;;46.67;6.37;;;;;;;25.45;43.56;98819.78;7304189;19;132785;-47
2021/12/07 06:30:05;;;;;;;23.63;4.38;;;;;;;25.56;43.60;98817.50;7302339;19;129245;-48
2021/12/07 06:32:30;;;;;;;32.78;5.32;;;;;;;25.61;43.29;98809.03;7307069;19;130063;-48
2021/12/07 06:34:56;;;;;;;21.17;4.28;;;;;;;25.63;43.53;98807.84;7303962;19;145060;-48
2021/12/07 06:37:21;;;;;;;26.92;5.30;;;;;;;25.65;42.96;98803.19;7303393;19;158705;-48
2021/12/07 06:39:46;;;;;;;24.73;4.57;;;;;;;25.64;43.04;98803.38;7306952;19;129249;-48
2021/12/07 06:42:12;;;;;;;23.05;4.40;;;;;;;25.63;43.51;98799.13;7302858;19;154820;-48
2021/12/07 06:44:37;;;;;;;31.13;5.20;;;;;;;25.66;43.50;98798.75;7304474;19;129248;-48
2021/12/07 06:47:03;;;;;;;19.52;4.07;;;;;;;25.62;43.55;98798.31;7306781;19;129307;-48
2021/12/07 06:49:29;;;;;;;29.17;4.77;;;;;;;25.55;43.72;98794.78;7305548;19;131488;-48
2021/12/07 06:51:54;;;;;;;25.63;5.10;;;;;;;25.48;43.51;98798.34;7304935;19;129191;-47
2021/12/07 06:54:19;;;;;;;25.35;4.50;;;;;;;25.42;44.34;98809.63;7304082;19;129188;-49
2021/12/07 06:56:45;;;;;;;13.77;3.47;;;;;;;25.23;43.30;98789.06;7307041;19;130214;-48
2021/12/07 06:59:10;;;;;;;18.77;3.70;;;;;;;25.20;44.65;98800.78;7304306;19;159495;-48
2021/12/07 07:01:36;;;;;;;29.73;5.25;;;;;;;25.05;44.83;98792.09;7304023;19;129546;-46
2021/12/07 07:04:02;;;;;;;18.77;3.92;;;;;;;25.02;44.63;98810.88;7304481;19;128980;-46
2021/12/07 07:06:28;;;;;;;27.83;4.47;;;;;;;24.91;45.13;98818.34;7305345;19;130057;-48
2021/12/07 07:08:53;;;;;;;21.17;4.28;;;;;;;24.82;45.15;98816.81;7305883;19;129905;-48
2021/12/07 07:11:19;;;;;;;25.43;4.47;;;;;;;24.75;45.28;98815.88;7305923;19;129061;-47
2021/12/07 07:13:46;;;;;;;31.00;5.18;;;;;;;24.63;45.31;98820.72;7303703;19;129360;-48
2021/12/07 07:16:12;;;;;;;23.77;4.20;;;;;;;24.51;46.09;98813.44;7161298;19;2782369;-48
2021/12/07 07:18:37;;;;;;;30.35;4.95;;;;;;;24.45;45.84;98834.19;7306500;19;130791;-48
2021/12/07 07:21:03;;;;;;;16.70;3.60;;;;;;;24.39;46.48;98827.00;7304010;19;129050;-52
2021/12/07 07:23:29;;;;;;;19.55;4.57;;;;;;;24.34;46.67;98825.91;7306651;19;129512;-52
2021/12/07 07:25:55;;;;;;;28.47;5.13;;;;;;;24.30;46.18;98828.06;7301900;19;129303;-48
2021/12/07 07:28:23;;;;;;;26.42;4.55;;;;;;;24.22;46.39;98833.38;7307281;19;130902;-48
2021/12/07 07:30:48;;;;;;;25.15;4.72;;;;;;;24.14;46.58;98828.19;7307832;19;129507;-48
2021/12/07 07:33:14;;;;;;;24.25;4.57;;;;;;;24.12;46.85;98839.84;7308407;19;129018;-46
2021/12/07 07:35:39;;;;;;;33.67;5.10;;;;;;;24.08;46.83;98844.63;7306729;19;155225;-48
2021/12/07 07:38:04;;;;;;;21.98;4.00;;;;;;;24.05;46.84;98837.09;7312368;19;159430;-48
2021/12/07 07:40:30;;;;;;;38.47;6.45;;;;;;;23.96;47.35;98847.78;7314253;19;129369;-49
2021/12/07 07:42:55;;;;;;;26.65;4.80;;;;;;;23.95;47.16;98846.97;7294356;19;130951;-49
2021/12/07 07:45:20;;;;;;;20.33;4.20;;;;;;;23.90;47.54;98846.66;7311195;19;133999;-47
2021/12/07 07:47:45;;;;;;;29.20;4.60;;;;;;;23.85;47.52;98846.34;7296014;19;158691;-47
2021/12/07 07:50:13;;;;;;;26.48;4.68;;;;;;;23.83;48.03;98855.41;7313281;19;135311;-48
2021/12/07 07:52:38;;;;;;;51.67;7.00;;;;;;;23.82;47.13;98849.34;7293505;19;130030;-48
2021/12/07 07:55:04;;;;;;;21.85;4.30;;;;;;;23.77;48.08;98851.66;7310602;19;130370;-46
2021/12/07 07:57:30;;;;;;;30.45;5.03;;;;;;;23.78;47.75;98849.84;7304497;19;130981;-48
2021/12/07 07:59:55;;;;;;;29.83;5.00;;;;;;;23.75;48.08;98864.13;7314224;19;129800;-49
2021/12/07 08:02:21;;;;;;;27.67;4.93;;;;;;;23.73;48.35;98857.44;7311327;19;154170;-48
2021/12/07 08:04:47;;;;;;;42.92;6.03;;;;;;;23.73;47.72;98860.03;7306971;19;158557;-49
2021/12/07 08:07:12;;;;;;;32.97;4.97;;;;;;;23.75;48.08;98860.69;7309430;19;130481;-46
2021/12/07 08:09:37;;;;;;;35.05;5.05;;;;;;;23.65;48.31;98847.75;7310364;19;130008;-45
2021/12/07 08:12:05;;;;;;;37.70;5.57;;;;;;;23.72;48.28;98853.97;7308252;19;155350;-48
2021/12/07 08:14:30;;;;;;;43.78;6.50;;;;;;;23.68;47.75;98855.31;7305320;19;130257;-47
2021/12/07 08:16:55;;;;;;;27.65;4.57;;;;;;;23.61;47.97;98836.00;7305840;19;130154;-46
2021/12/07 08:19:21;;;;;;;22.42;4.22;;;;;;;23.62;48.60;98848.09;7311482;19;153250;-46
2021/12/07 08:21:46;;;;;;;215.53;28.03;;;;;;;23.61;48.46;98846.47;7298446;19;130106;-46
2021/12/07 08:24:12;;;;;;;21.23;3.85;;;;;;;23.62;48.02;98852.56;7307349;19;133832;-48
2021/12/07 08:26:37;;;;;;;30.08;4.65;;;;;;;23.59;48.35;98851.09;7310089;19;157351;-47
2021/12/07 08:29:03;;;;;;;29.73;5.23;;;;;;;23.57;48.63;98860.91;7297281;19;129674;-49
2021/12/07 08:31:29;;;;;;;32.92;5.20;;;;;;;23.61;48.20;98856.16;7312307;19;129853;-48
2021/12/07 08:33:54;;;;;;;47.03;7.85;;;;;;;23.59;48.46;98863.38;7310912;19;130949;-48
2021/12/07 08:36:20;;;;;;;22.67;4.07;;;;;;;23.62;48.29;98868.31;7301826;19;132664;-48
2021/12/07 08:38:46;;;;;;;29.53;4.73;;;;;;;23.67;47.80;98863.38;7308735;19;129390;-48
2021/12/07 08:41:13;;;;;;;;;;;;;;;23.71;48.19;98869.91;7306984;19;130610;-47
2021/12/07 08:43:40;;;;;;;40.42;6.13;;;;;;;23.81;48.19;98867.88;7311322;19;129462;-47
2021/12/07 08:46:06;;;;;;;21.35;4.28;;;;;;;23.85;47.31;98862.09;7307768;19;130997;-48
2021/12/07 08:48:34;;;;;;;20.88;4.10;;;;;;;23.91;47.41;98863.25;7312226;19;129330;-46
2021/12/07 08:50:59;;;;;;;24.63;4.60;;;;;;;23.99;46.92;98864.06;7308979;19;129274;-49
2021/12/07 08:53:26;;;;;;;28.15;4.97;;;;;;;24.06;47.44;98856.31;7313104;19;130107;-49
2021/12/07 09:03:53;;;;;;;45.40;7.30;;;;;;;24.39;46.24;98863.78;7308410;19;129247;-52
2021/12/07 09:06:18;;;;;;;25.15;4.60;;;;;;;24.39;45.99;98874.28;7309540;19;129602;-53
2021/12/07 09:08:44;;;;;;;25.80;4.55;;;;;;;24.44;46.29;98861.44;7301767;19;154428;-48
2021/12/07 09:11:11;;;;;;;20.70;3.80;;;;;;;24.41;46.52;98869.69;7312566;19;128826;-49
2021/12/07 09:13:37;;;;;;;40.35;6.18;;;;;;;24.42;46.44;98860.81;7309027;19;129543;-48
2021/12/07 09:16:03;;;;;;;18.30;3.93;;;;;;;24.53;46.11;98869.28;7309075;19;129752;-48
2021/12/07 09:18:29;;;;;;;20.17;4.03;;;;;;;24.60;45.72;98864.94;7310230;19;129053;-46
2021/12/07 09:20:56;;;;;;;18.77;4.10;;;;;;;24.61;45.72;98867.38;7310721;19;128919;-51
2021/12/07 09:23:21;;;;;;;44.95;7.10;;;;;;;24.65;45.86;98868.69;7305379;19;129239;-51
2021/12/07 09:25:47;;;;;;;20.85;4.10;;;;;;;24.67;46.17;98871.13;7309330;19;129759;-52
2021/12/07 09:28:12;;;;;;;20.40;3.78;;;;;;;24.67;45.46;98876.38;7310475;19;130334;-52
2021/12/07 09:30:38;;;;;;;22.40;4.20;;;;;;;24.73;45.30;98873.06;7309362;19;154313;-47
2021/12/07 09:33:04;;;;;;;16.53;3.70;;;;;;;24.73;45.99;98870.44;7312350;19;129628;-49
2021/12/07 09:35:30;;;;;;;27.40;4.80;;;;;;;24.73;45.67;98865.19;7305580;19;129771;-53
2021/12/07 09:37:55;;;;;;;18.55;4.03;;;;;;;24.75;45.42;98874.53;7309816;19;129374;-47
2021/12/07 09:40:24;;;;;;;25.52;4.82;;;;;;;24.78;45.42;98878.63;7308359;19;129703;-49
2021/12/07 09:42:51;;;;;;;16.15;3.60;;;;;;;24.74;45.86;98872.09;7307603;19;130728;-52
2021/12/07 09:45:18;;;;;;;22.48;4.20;;;;;;;24.70;45.62;98866.38;7307930;19;132160;-50
2021/12/07 09:47:45;;;;;;;20.00;3.78;;;;;;;24.75;45.94;98873.72;7306733;19;129630;-52
2021/12/07 09:50:15;;;;;;;18.08;4.47;;;;;;;24.69;45.34;98856.03;7308545;19;130668;-51
2021/12/07 09:52:43;;;;;;;28.83;4.88;;;;;;;24.72;45.45;98868.81;7310777;19;130138;-46
2021/12/07 09:55:09;;;;;;;61.33;8.98;;;;;;;24.75;46.08;98873.72;7304965;19;130825;-51
2021/12/07 09:57:34;;;;;;;24.05;4.63;;;;;;;24.74;45.42;98872.09;7310435;19;129080;-53
2021/12/07 10:00:06;;;;;;;17.55;3.72;;;;;;;24.70;46.08;98876.88;7310329;19;129575;-54
2021/12/07 10:02:31;;;;;;;24.83;4.82;;;;;;;24.69;45.54;98869.19;7305021;19;132621;-49
2021/12/07 10:04:56;;;;;;;22.95;4.57;;;;;;;24.67;46.20;98873.75;7305360;19;158708;-48
2021/12/07 10:07:22;;;;;;;29.38;4.93;;;;;;;24.62;45.84;98873.47;7299815;19;154421;-48
2021/12/07 10:09:47;;;;;;;41.27;6.50;;;;;;;24.63;45.79;98869.84;7308190;19;155074;-48
2021/12/07 10:12:18;;;;;;;18.88;3.65;;;;;;;24.64;46.07;98868.88;7307683;19;130546;-48
2021/12/07 10:14:43;;;;;;;20.10;4.18;;;;;;;24.49;46.40;98859.09;7308267;19;129900;-51
2021/12/07 10:17:10;;;;;;;25.88;4.85;;;;;;;24.54;46.60;98868.28;7302381;19;129414;-45
2021/12/07 10:19:38;;;;;;;32.53;5.28;;;;;;;24.53;45.99;98870.09;7310477;19;128952;-46
2021/12/07 10:22:07;;;;;;;13.40;3.15;;;;;;;24.51;45.94;98866.00;7308174;19;130189;-48
2021/12/07 10:24:47;;;;;;;40.38;6.38;;;;;;;24.44;46.48;98869.31;7307687;19;130375;-48
2021/12/07 10:27:12;;;;;;;30.40;4.45;;;;;;;24.46;46.14;98869.19;7308437;19;129148;-46
2021/12/07 10:29:39;;;;;;;25.15;4.50;;;;;;;24.40;46.56;98869.84;7311389;19;129950;-45
2021/12/07 10:32:07;;;;;;;27.70;5.10;;;;;;;24.39;46.40;98857.72;7306277;19;129341;-47
2021/12/07 10:34:36;;;;;;;29.80;4.78;;;;;;;24.41;46.63;98864.41;7307107;19;129204;-47
2021/12/07 10:37:24;;;;;;;52.90;8.20;;;;;;;24.32;46.51;98862.88;7307628;19;131082;-47
2021/12/07 10:39:55;;;;;;;31.23;5.35;;;;;;;24.31;46.81;98861.22;7308950;19;129549;-46
2021/12/07 10:42:29;;;;;;;21.98;4.15;;;;;;;24.32;46.84;98851.53;7308464;19;130228;-48
2021/12/07 10:44:58;;;;;;;21.73;4.13;;;;;;;24.31;46.56;98850.69;7302471;19;130741;-46
2021/12/07 10:47:24;;;;;;;22.60;4.32;;;;;;;24.28;47.21;98848.44;7308754;19;129277;-47
2021/12/07 10:50:00;;;;;;;21.08;4.15;;;;;;;24.25;47.01;98851.41;7306001;19;129449;-46
2021/12/07 10:52:33;;;;;;;23.47;3.87;;;;;;;24.27;46.72;98859.13;7310452;19;129490;-46
2021/12/07 10:55:05;;;;;;;17.38;3.88;;;;;;;24.22;46.70;98849.13;7309251;19;129353;-47
2021/12/07 10:57:36;;;;;;;21.13;3.70;;;;;;;24.22;47.20;98846.50;7311975;19;129243;-48
2021/12/07 11:00:11;;;;;;;17.65;3.60;;;;;;;24.22;47.36;98836.00;7312643;19;128918;-47
2021/12/07 11:02:38;;;;;;;23.15;3.97;;;;;;;24.22;47.11;98841.25;7309976;19;130279;-47
2021/12/07 11:05:09;;;;;;;17.83;3.47;;;;;;;24.17;47.20;98846.22;7308911;19;130479;-47
2021/12/07 11:07:36;;;;;;;43.72;5.90;;;;;;;24.09;47.60;98830.50;7309302;19;129245;-47
2021/12/07 11:10:23;;;;;;;20.90;3.90;;;;;;;24.18;47.12;98842.59;7316094;19;129705;-47
2021/12/07 11:12:59;;;;;;;20.92;3.88;;;;;;;24.18;47.54;98845.22;7325613;19;129259;-47
2021/12/07 11:15:28;;;;;;;19.73;3.85;;;;;;;24.19;46.85;98844.25;7320421;19;129176;-46
2021/12/07 11:17:58;;;;;;;14.45;3.38;;;;;;;24.16;47.01;98841.94;7324243;19;129035;-46
2021/12/07 11:20:25;;;;;;;15.43;3.47;;;;;;;24.15;46.91;98840.31;7324068;19;128929;-48
2021/12/07 11:22:56;;;;;;;17.52;3.58;;;;;;;24.18;47.36;98847.84;7317076;19;130895;-51
2021/12/07 11:25:53;;;;;;;23.95;4.35;;;;;;;24.17;47.70;98846.22;7318427;19;130094;-49
2021/12/07 11:31:29;;;;;;;23.50;4.82;;;;;;;24.15;47.06;98850.00;7319064;19;130796;-50
2021/12/07 11:34:21;;;;;;;35.40;6.68;;;;;;;24.13;47.70;98847.53;7321029;19;129483;-45
2021/12/07 11:36:54;;;;;;;31.50;5.47;;;;;;;24.16;47.67;98843.75;7321467;19;130352;-53
2021/12/07 11:39:34;;;;;;;27.92;5.03;;;;;;;24.14;47.16;98851.00;7317983;19;129097;-53
2021/12/07 11:42:07;;;;;;;12.23;3.42;;;;;;;24.00;47.81;98831.53;7321498;19;129028;-54
2021/12/07 11:44:37;;;;;;;33.30;5.28;;;;;;;24.09;47.11;98846.28;7316145;19;131351;-50
2021/12/07 11:47:04;;;;;;;24.52;4.88;;;;;;;24.10;47.90;98842.63;7321142;19;133154;-47
2021/12/07 11:49:33;;;;;;;27.35;5.18;;;;;;;24.08;47.58;98844.63;7316338;19;130658;-51
2021/12/07 11:52:01;;;;;;;12.60;3.53;;;;;;;24.10;47.20;98842.63;7323219;19;129553;-48
2021/12/07 11:54:30;;;;;;;23.65;4.28;;;;;;;24.10;47.34;98836.56;7316490;19;133096;-53
2021/12/07 11:56:56;;;;;;;23.20;4.28;;;;;;;23.96;47.39;98824.16;7320362;19;129878;-52
2021/12/07 11:59:22;;;;;;;24.13;4.50;;;;;;;24.07;47.80;98844.78;7320606;19;129245;-49
2021/12/07 12:01:49;;;;;;;14.17;3.77;;;;;;;24.11;47.16;98838.22;7315167;19;129109;-47
2021/12/07 12:04:17;;;;;;;15.60;3.63;;;;;;;24.08;47.54;98849.88;7319534;19;130075;-51
2021/12/07 12:06:47;;;;;;;24.48;4.60;;;;;;;24.08;47.58;98849.06;7312491;19;130586;-49
2021/12/07 12:09:13;;;;;;;17.23;4.00;;;;;;;24.10;47.51;98847.06;7320973;19;128979;-47
2021/12/07 12:11:56;;;;;;;27.37;5.03;;;;;;;24.04;47.50;98838.09;7320715;19;128897;-49
2021/12/07 12:14:34;;;;;;;21.55;4.28;;;;;;;24.05;47.84;98841.50;7318384;19;129521;-52
2021/12/07 12:17:31;;;;;;;23.27;4.47;;;;;;;24.05;47.94;98855.47;7319392;19;130593;-48
2021/12/07 12:20:28;;;;;;;18.88;4.20;;;;;;;23.98;47.24;98838.75;7322068;19;129289;-51
2021/12/07 12:23:18;;;;;;;21.10;4.60;;;;;;;24.06;47.95;98844.00;7308218;19;129716;-51
2021/12/07 12:25:43;;;;;;;12.68;3.40;;;;;;;24.10;47.61;98847.91;7311492;19;130170;-46
2021/12/07 12:28:08;;;;;;;16.27;3.55;;;;;;;24.09;47.61;98846.28;7307626;19;136161;-45
2021/12/07 12:30:40;;;;;;;26.77;4.53;;;;;;;24.05;47.32;98841.50;7313701;19;129651;-48
2021/12/07 12:33:12;;;;;;;18.15;3.85;;;;;;;24.07;47.23;98843.00;7313931;19;129430;-47
2021/12/07 12:35:47;;;;;;;33.95;5.30;;;;;;;24.05;47.61;98844.13;7308654;19;130355;-48
2021/12/07 12:38:17;;;;;;;10.13;3.05;;;;;;;24.10;47.09;98847.91;7309130;19;129252;-48
2021/12/07 12:40:51;;;;;;;13.85;3.28;;;;;;;24.07;47.30;98848.25;7311542;19;129693;-46
2021/12/07 12:43:32;;;;;;;77.32;9.80;;;;;;;24.03;47.58;98841.69;7309660;19;128875;-47
2021/12/07 12:46:02;;;;;;;21.58;3.85;;;;;;;24.06;47.48;98840.53;7309900;19;130155;-46
2021/12/07 12:48:27;;;;;;;97.53;12.27;;;;;;;24.05;47.59;98833.63;7309708;19;130017;-44
2021/12/07 12:50:54;;;;;;;13.55;3.70;;;;;;;24.08;47.66;98839.38;7311381;19;130072;-48
2021/12/07 12:55:55;;;;;;;37.35;6.30;;;;;;;24.06;47.67;98846.63;7305578;19;129734;-49
2021/12/07 13:01:08;;;;;;;25.13;4.63;;;;;;;24.07;47.61;98853.50;7311127;19;129515;-46
2021/12/07 13:06:14;;;;;;;17.35;3.78;;;;;;;24.06;47.68;98862.38;7308023;19;130431;-48
2021/12/07 13:08:55;;;;;;;27.98;4.72;;;;;;;24.05;47.46;98850.22;7308538;19;129658;-52
2021/12/07 13:12:03;;;;;;;17.95;4.10;;;;;;;24.05;48.02;98849.41;7310809;19;154370;-49
2021/12/07 13:14:33;;;;;;;37.00;6.00;;;;;;;24.07;47.68;98856.13;7305268;19;129625;-53
2021/12/07 13:17:14;;;;;;;20.55;4.28;;;;;;;24.03;48.05;98852.19;7312343;19;130156;-55
2021/12/07 13:20:01;;;;;;;41.75;6.10;;;;;;;24.05;47.42;98850.22;7304405;19;159917;-48
2021/12/07 13:22:54;;;;;;;20.08;4.22;;;;;;;24.08;47.26;98849.88;7312246;19;130285;-48
2021/12/07 13:25:26;;;;;;;29.73;5.32;;;;;;;24.04;47.70;98859.09;7306101;19;130367;-48
2021/12/07 13:28:11;;;;;;;26.95;4.85;;;;;;;24.00;48.15;98864.84;7312170;19;130575;-48
2021/12/07 13:30:49;;;;;;;40.63;5.68;;;;;;;24.01;48.13;98864.69;7309953;19;130439;-48
2021/12/07 13:33:34;;;;;;;24.33;4.32;;;;;;;24.06;48.20;98858.91;7312283;19;129049;-48
2021/12/07 13:36:05;;;;;;;15.43;3.67;;;;;;;24.06;48.01;98862.38;7307726;19;129403;-48
2021/12/07 13:38:31;;;;;;;23.35;4.28;;;;;;;24.04;47.86;98874.84;7311588;19;129757;-48
2021/12/07 13:41:11;;;;;;;24.23;4.30;;;;;;;24.01;47.88;98863.88;7311894;19;129489;-48
2021/12/07 13:43:37;;;;;;;78.32;10.70;;;;;;;23.94;47.47;98857.63;7304003;19;156076;-48
2021/12/07 13:46:08;;;;;;;23.48;4.03;;;;;;;23.94;47.59;98868.13;7309173;19;130220;-48